sensor_id;sensor_type;location;lat;lon;timestamp;P1;durP1;ratioP1;P2;durP2;ratioP2
53857;SDS011;39763;51.188;6.690;2022-07-10T00:01:16;8.02;;;2.70;;
53857;SDS011;39763;51.188;6.690;2022-07-10T00:02:49;7.72;;;2.78;;
53857;SDS011;39763;51.188;6.690;2022-07-10T00:04:23;7.00;;;2.60;;
53857;SDS011;39763;51.188;6.690;2022-07-10T00:05:55;9.88;;;2.80;;
53857;SDS011;39763;51.188;6.690;2022-07-10T00:07:28;10.00;;;2.72;;
53857;SDS011;39763;51.188;6.690;2022-07-10T00:08:59;10.82;;;2.85;;
53857;SDS011;39763;51.188;6.690;2022-07-10T00:10:31;10.02;;;2.70;;
53857;SDS011;39763;51.188;6.690;2022-07-10T00:12:04;7.43;;;2.40;;
53857;SDS011;39763;51.188;6.690;2022-07-10T00:13:37;8.60;;;2.53;;
53857;SDS011;39763;51.188;6.690;2022-07-10T00:15:09;9.40;;;3.03;;
53857;SDS011;39763;51.188;6.690;2022-07-10T00:16:41;8.05;;;2.50;;
53857;SDS011;39763;51.188;6.690;2022-07-10T00:18:14;8.85;;;2.70;;
53857;SDS011;39763;51.188;6.690;2022-07-10T00:19:46;7.20;;;2.70;;
53857;SDS011;39763;51.188;6.690;2022-07-10T00:21:18;9.85;;;2.88;;
53857;SDS011;39763;51.188;6.690;2022-07-10T00:22:50;5.88;;;2.45;;
53857;SDS011;39763;51.188;6.690;2022-07-10T00:24:22;7.65;;;2.75;;
53857;SDS011;39763;51.188;6.690;2022-07-10T00:25:53;8.65;;;2.65;;
53857;SDS011;39763;51.188;6.690;2022-07-10T00:27:25;8.10;;;2.42;;
53857;SDS011;39763;51.188;6.690;2022-07-10T00:28:57;11.43;;;2.38;;
53857;SDS011;39763;51.188;6.690;2022-07-10T00:30:29;8.23;;;2.50;;
53857;SDS011;39763;51.188;6.690;2022-07-10T00:32:01;7.82;;;2.42;;
53857;SDS011;39763;51.188;6.690;2022-07-10T00:33:35;8.73;;;2.60;;
53857;SDS011;39763;51.188;6.690;2022-07-10T00:35:07;7.10;;;2.03;;
53857;SDS011;39763;51.188;6.690;2022-07-10T00:36:39;10.30;;;2.83;;
53857;SDS011;39763;51.188;6.690;2022-07-10T00:38:11;7.78;;;2.58;;
53857;SDS011;39763;51.188;6.690;2022-07-10T00:39:43;8.88;;;2.60;;
53857;SDS011;39763;51.188;6.690;2022-07-10T00:41:15;10.00;;;2.72;;
53857;SDS011;39763;51.188;6.690;2022-07-10T00:42:47;8.90;;;2.40;;
53857;SDS011;39763;51.188;6.690;2022-07-10T00:44:19;9.00;;;2.30;;
53857;SDS011;39763;51.188;6.690;2022-07-10T00:45:50;12.13;;;3.10;;
53857;SDS011;39763;51.188;6.690;2022-07-10T00:47:23;8.60;;;2.53;;
53857;SDS011;39763;51.188;6.690;2022-07-10T00:48:56;10.65;;;2.42;;
53857;SDS011;39763;51.188;6.690;2022-07-10T00:50:29;7.43;;;2.45;;
53857;SDS011;39763;51.188;6.690;2022-07-10T00:52:02;7.68;;;2.00;;
53857;SDS011;39763;51.188;6.690;2022-07-10T00:53:37;10.00;;;2.70;;
53857;SDS011;39763;51.188;6.690;2022-07-10T00:55:09;8.65;;;2.50;;
53857;SDS011;39763;51.188;6.690;2022-07-10T00:56:43;8.98;;;2.47;;
53857;SDS011;39763;51.188;6.690;2022-07-10T00:58:15;6.90;;;2.30;;
53857;SDS011;39763;51.188;6.690;2022-07-10T00:59:47;8.77;;;2.80;;
53857;SDS011;39763;51.188;6.690;2022-07-10T01:01:20;8.80;;;2.83;;
53857;SDS011;39763;51.188;6.690;2022-07-10T01:02:54;9.30;;;2.63;;
53857;SDS011;39763;51.188;6.690;2022-07-10T01:04:27;8.38;;;2.30;;
53857;SDS011;39763;51.188;6.690;2022-07-10T01:05:59;8.13;;;2.55;;
53857;SDS011;39763;51.188;6.690;2022-07-10T01:07:31;7.43;;;2.60;;
53857;SDS011;39763;51.188;6.690;2022-07-10T01:09:02;7.13;;;2.63;;
53857;SDS011;39763;51.188;6.690;2022-07-10T01:10:34;8.77;;;2.80;;
53857;SDS011;39763;51.188;6.690;2022-07-10T01:12:06;6.20;;;2.45;;
53857;SDS011;39763;51.188;6.690;2022-07-10T01:13:39;9.30;;;2.70;;
53857;SDS011;39763;51.188;6.690;2022-07-10T01:15:12;9.15;;;2.60;;
53857;SDS011;39763;51.188;6.690;2022-07-10T01:16:44;12.10;;;2.92;;
53857;SDS011;39763;51.188;6.690;2022-07-10T01:18:16;8.82;;;2.67;;
53857;SDS011;39763;51.188;6.690;2022-07-10T01:19:49;12.05;;;3.00;;
53857;SDS011;39763;51.188;6.690;2022-07-10T01:21:26;10.98;;;2.78;;
53857;SDS011;39763;51.188;6.690;2022-07-10T01:22:59;8.20;;;2.50;;
53857;SDS011;39763;51.188;6.690;2022-07-10T01:24:31;7.28;;;2.60;;
53857;SDS011;39763;51.188;6.690;2022-07-10T01:26:03;7.00;;;2.47;;
53857;SDS011;39763;51.188;6.690;2022-07-10T01:27:35;8.05;;;2.53;;
53857;SDS011;39763;51.188;6.690;2022-07-10T01:29:07;8.13;;;2.20;;
53857;SDS011;39763;51.188;6.690;2022-07-10T01:30:40;7.68;;;2.45;;
53857;SDS011;39763;51.188;6.690;2022-07-10T01:32:12;7.47;;;2.42;;
53857;SDS011;39763;51.188;6.690;2022-07-10T01:33:44;10.30;;;2.80;;
53857;SDS011;39763;51.188;6.690;2022-07-10T01:35:16;8.80;;;2.80;;
53857;SDS011;39763;51.188;6.690;2022-07-10T01:36:49;9.65;;;2.80;;
53857;SDS011;39763;51.188;6.690;2022-07-10T01:38:20;7.65;;;2.50;;
53857;SDS011;39763;51.188;6.690;2022-07-10T01:39:52;10.55;;;2.53;;
53857;SDS011;39763;51.188;6.690;2022-07-10T01:41:24;6.35;;;2.50;;
53857;SDS011;39763;51.188;6.690;2022-07-10T01:42:56;12.82;;;3.30;;
53857;SDS011;39763;51.188;6.690;2022-07-10T01:44:29;8.95;;;2.65;;
53857;SDS011;39763;51.188;6.690;2022-07-10T01:46:01;9.38;;;2.70;;
53857;SDS011;39763;51.188;6.690;2022-07-10T01:47:33;8.45;;;2.85;;
53857;SDS011;39763;51.188;6.690;2022-07-10T01:49:05;10.55;;;3.13;;
53857;SDS011;39763;51.188;6.690;2022-07-10T01:50:36;9.90;;;2.80;;
53857;SDS011;39763;51.188;6.690;2022-07-10T01:52:10;8.10;;;2.75;;
53857;SDS011;39763;51.188;6.690;2022-07-10T01:53:41;7.25;;;2.53;;
53857;SDS011;39763;51.188;6.690;2022-07-10T01:55:13;7.63;;;2.67;;
53857;SDS011;39763;51.188;6.690;2022-07-10T01:56:45;7.35;;;2.70;;
53857;SDS011;39763;51.188;6.690;2022-07-10T01:58:17;10.48;;;2.90;;
53857;SDS011;39763;51.188;6.690;2022-07-10T01:59:49;10.27;;;2.90;;
53857;SDS011;39763;51.188;6.690;2022-07-10T02:01:21;8.65;;;2.90;;
53857;SDS011;39763;51.188;6.690;2022-07-10T02:02:53;7.18;;;2.85;;
53857;SDS011;39763;51.188;6.690;2022-07-10T02:04:43;10.38;;;2.72;;
53857;SDS011;39763;51.188;6.690;2022-07-10T02:06:15;9.80;;;2.65;;
53857;SDS011;39763;51.188;6.690;2022-07-10T02:07:48;8.35;;;2.60;;
53857;SDS011;39763;51.188;6.690;2022-07-10T02:09:20;8.80;;;2.78;;
53857;SDS011;39763;51.188;6.690;2022-07-10T02:10:52;9.10;;;2.70;;
53857;SDS011;39763;51.188;6.690;2022-07-10T02:12:25;10.02;;;2.65;;
53857;SDS011;39763;51.188;6.690;2022-07-10T02:13:58;7.80;;;2.85;;
53857;SDS011;39763;51.188;6.690;2022-07-10T02:15:30;8.32;;;2.70;;
53857;SDS011;39763;51.188;6.690;2022-07-10T02:17:02;13.88;;;3.10;;
53857;SDS011;39763;51.188;6.690;2022-07-10T02:18:35;9.38;;;2.83;;
53857;SDS011;39763;51.188;6.690;2022-07-10T02:20:08;6.32;;;2.80;;
53857;SDS011;39763;51.188;6.690;2022-07-10T02:21:42;9.90;;;3.35;;
53857;SDS011;39763;51.188;6.690;2022-07-10T02:23:15;8.57;;;3.03;;
53857;SDS011;39763;51.188;6.690;2022-07-10T02:24:47;7.90;;;2.95;;
53857;SDS011;39763;51.188;6.690;2022-07-10T02:26:18;13.38;;;3.38;;
53857;SDS011;39763;51.188;6.690;2022-07-10T02:27:50;11.55;;;3.00;;
53857;SDS011;39763;51.188;6.690;2022-07-10T02:29:22;8.30;;;3.08;;
53857;SDS011;39763;51.188;6.690;2022-07-10T02:30:54;9.40;;;3.00;;
53857;SDS011;39763;51.188;6.690;2022-07-10T02:32:26;10.13;;;2.90;;
53857;SDS011;39763;51.188;6.690;2022-07-10T02:33:58;7.53;;;2.80;;
53857;SDS011;39763;51.188;6.690;2022-07-10T02:35:29;6.82;;;2.53;;
53857;SDS011;39763;51.188;6.690;2022-07-10T02:37:01;7.47;;;2.80;;
53857;SDS011;39763;51.188;6.690;2022-07-10T02:38:35;7.72;;;2.53;;
53857;SDS011;39763;51.188;6.690;2022-07-10T02:40:07;9.60;;;3.22;;
53857;SDS011;39763;51.188;6.690;2022-07-10T02:41:39;7.78;;;2.80;;
53857;SDS011;39763;51.188;6.690;2022-07-10T02:43:12;10.55;;;2.92;;
53857;SDS011;39763;51.188;6.690;2022-07-10T02:44:44;9.60;;;2.80;;
53857;SDS011;39763;51.188;6.690;2022-07-10T02:46:16;7.30;;;2.67;;
53857;SDS011;39763;51.188;6.690;2022-07-10T02:47:48;9.88;;;2.75;;
53857;SDS011;39763;51.188;6.690;2022-07-10T02:49:20;8.13;;;2.58;;
53857;SDS011;39763;51.188;6.690;2022-07-10T02:50:52;10.68;;;3.03;;
53857;SDS011;39763;51.188;6.690;2022-07-10T02:52:23;11.30;;;3.33;;
53857;SDS011;39763;51.188;6.690;2022-07-10T02:53:57;8.60;;;2.60;;
53857;SDS011;39763;51.188;6.690;2022-07-10T02:55:29;9.00;;;2.95;;
53857;SDS011;39763;51.188;6.690;2022-07-10T02:57:03;9.48;;;2.83;;
53857;SDS011;39763;51.188;6.690;2022-07-10T02:58:37;9.35;;;2.90;;
53857;SDS011;39763;51.188;6.690;2022-07-10T03:00:10;8.68;;;2.53;;
53857;SDS011;39763;51.188;6.690;2022-07-10T03:01:43;7.40;;;3.03;;
53857;SDS011;39763;51.188;6.690;2022-07-10T03:03:14;9.13;;;2.88;;
53857;SDS011;39763;51.188;6.690;2022-07-10T03:04:48;7.07;;;2.60;;
53857;SDS011;39763;51.188;6.690;2022-07-10T03:06:20;10.77;;;2.97;;
53857;SDS011;39763;51.188;6.690;2022-07-10T03:07:52;9.85;;;2.90;;
53857;SDS011;39763;51.188;6.690;2022-07-10T03:09:25;9.13;;;3.10;;
53857;SDS011;39763;51.188;6.690;2022-07-10T03:10:57;9.27;;;2.80;;
53857;SDS011;39763;51.188;6.690;2022-07-10T03:12:28;8.40;;;3.20;;
53857;SDS011;39763;51.188;6.690;2022-07-10T03:14:00;9.40;;;3.10;;
53857;SDS011;39763;51.188;6.690;2022-07-10T03:15:32;8.77;;;3.42;;
53857;SDS011;39763;51.188;6.690;2022-07-10T03:17:04;9.20;;;3.22;;
53857;SDS011;39763;51.188;6.690;2022-07-10T03:18:35;10.20;;;3.17;;
53857;SDS011;39763;51.188;6.690;2022-07-10T03:20:08;10.23;;;3.28;;
53857;SDS011;39763;51.188;6.690;2022-07-10T03:21:41;7.80;;;3.08;;
53857;SDS011;39763;51.188;6.690;2022-07-10T03:23:13;7.22;;;2.78;;
53857;SDS011;39763;51.188;6.690;2022-07-10T03:24:46;8.43;;;2.95;;
53857;SDS011;39763;51.188;6.690;2022-07-10T03:26:18;9.18;;;3.45;;
53857;SDS011;39763;51.188;6.690;2022-07-10T03:27:49;11.00;;;3.28;;
53857;SDS011;39763;51.188;6.690;2022-07-10T03:29:21;13.10;;;3.33;;
53857;SDS011;39763;51.188;6.690;2022-07-10T03:30:53;9.20;;;2.72;;
53857;SDS011;39763;51.188;6.690;2022-07-10T03:32:25;8.85;;;2.90;;
53857;SDS011;39763;51.188;6.690;2022-07-10T03:33:56;7.70;;;2.90;;
53857;SDS011;39763;51.188;6.690;2022-07-10T03:35:28;9.90;;;3.10;;
53857;SDS011;39763;51.188;6.690;2022-07-10T03:37:02;8.60;;;3.63;;
53857;SDS011;39763;51.188;6.690;2022-07-10T03:38:34;11.15;;;3.83;;
53857;SDS011;39763;51.188;6.690;2022-07-10T03:40:08;10.88;;;3.20;;
53857;SDS011;39763;51.188;6.690;2022-07-10T03:41:40;10.00;;;3.08;;
53857;SDS011;39763;51.188;6.690;2022-07-10T03:43:12;10.45;;;3.03;;
53857;SDS011;39763;51.188;6.690;2022-07-10T03:44:44;8.90;;;3.05;;
53857;SDS011;39763;51.188;6.690;2022-07-10T03:46:16;7.55;;;2.88;;
53857;SDS011;39763;51.188;6.690;2022-07-10T03:47:48;10.27;;;2.80;;
53857;SDS011;39763;51.188;6.690;2022-07-10T03:49:19;7.88;;;3.20;;
53857;SDS011;39763;51.188;6.690;2022-07-10T03:50:51;9.27;;;3.05;;
53857;SDS011;39763;51.188;6.690;2022-07-10T03:52:23;9.48;;;3.05;;
53857;SDS011;39763;51.188;6.690;2022-07-10T03:53:55;10.55;;;3.13;;
53857;SDS011;39763;51.188;6.690;2022-07-10T03:55:28;10.82;;;3.10;;
53857;SDS011;39763;51.188;6.690;2022-07-10T03:57:00;10.23;;;3.33;;
53857;SDS011;39763;51.188;6.690;2022-07-10T03:58:51;9.60;;;3.38;;
53857;SDS011;39763;51.188;6.690;2022-07-10T04:00:23;9.73;;;3.17;;
53857;SDS011;39763;51.188;6.690;2022-07-10T04:01:55;11.32;;;3.67;;
53857;SDS011;39763;51.188;6.690;2022-07-10T04:03:27;7.80;;;2.90;;
53857;SDS011;39763;51.188;6.690;2022-07-10T04:04:59;11.13;;;3.33;;
53857;SDS011;39763;51.188;6.690;2022-07-10T04:06:31;7.03;;;3.00;;
53857;SDS011;39763;51.188;6.690;2022-07-10T04:08:03;14.18;;;3.58;;
53857;SDS011;39763;51.188;6.690;2022-07-10T04:09:35;9.40;;;3.30;;
53857;SDS011;39763;51.188;6.690;2022-07-10T04:11:09;10.27;;;3.15;;
53857;SDS011;39763;51.188;6.690;2022-07-10T04:12:40;9.65;;;3.10;;
53857;SDS011;39763;51.188;6.690;2022-07-10T04:14:12;10.65;;;3.40;;
53857;SDS011;39763;51.188;6.690;2022-07-10T04:15:44;10.57;;;3.53;;
53857;SDS011;39763;51.188;6.690;2022-07-10T04:17:16;10.55;;;3.53;;
53857;SDS011;39763;51.188;6.690;2022-07-10T04:18:47;11.55;;;3.28;;
53857;SDS011;39763;51.188;6.690;2022-07-10T04:20:19;7.25;;;3.20;;
53857;SDS011;39763;51.188;6.690;2022-07-10T04:21:52;12.10;;;3.63;;
53857;SDS011;39763;51.188;6.690;2022-07-10T04:23:24;11.32;;;3.42;;
53857;SDS011;39763;51.188;6.690;2022-07-10T04:24:55;9.43;;;3.45;;
53857;SDS011;39763;51.188;6.690;2022-07-10T04:26:28;12.02;;;3.50;;
53857;SDS011;39763;51.188;6.690;2022-07-10T04:28:00;10.35;;;3.75;;
53857;SDS011;39763;51.188;6.690;2022-07-10T04:29:32;11.25;;;3.60;;
53857;SDS011;39763;51.188;6.690;2022-07-10T04:31:04;11.15;;;3.80;;
53857;SDS011;39763;51.188;6.690;2022-07-10T04:32:36;7.80;;;3.40;;
53857;SDS011;39763;51.188;6.690;2022-07-10T04:34:08;9.95;;;3.60;;
53857;SDS011;39763;51.188;6.690;2022-07-10T04:35:40;11.05;;;3.88;;
53857;SDS011;39763;51.188;6.690;2022-07-10T04:37:11;8.10;;;3.60;;
53857;SDS011;39763;51.188;6.690;2022-07-10T04:38:43;12.52;;;4.10;;
53857;SDS011;39763;51.188;6.690;2022-07-10T04:40:15;12.20;;;3.58;;
53857;SDS011;39763;51.188;6.690;2022-07-10T04:41:48;10.48;;;3.30;;
53857;SDS011;39763;51.188;6.690;2022-07-10T04:43:20;8.73;;;3.67;;
53857;SDS011;39763;51.188;6.690;2022-07-10T04:44:52;13.05;;;4.28;;
53857;SDS011;39763;51.188;6.690;2022-07-10T04:46:24;9.05;;;3.35;;
53857;SDS011;39763;51.188;6.690;2022-07-10T04:47:55;10.25;;;3.55;;
53857;SDS011;39763;51.188;6.690;2022-07-10T04:49:27;11.85;;;4.28;;
53857;SDS011;39763;51.188;6.690;2022-07-10T04:51:00;11.50;;;3.83;;
53857;SDS011;39763;51.188;6.690;2022-07-10T04:52:31;12.73;;;4.25;;
53857;SDS011;39763;51.188;6.690;2022-07-10T04:54:03;9.73;;;3.88;;
53857;SDS011;39763;51.188;6.690;2022-07-10T04:55:35;10.10;;;3.90;;
53857;SDS011;39763;51.188;6.690;2022-07-10T04:57:08;10.68;;;3.88;;
53857;SDS011;39763;51.188;6.690;2022-07-10T04:58:40;8.52;;;3.75;;
53857;SDS011;39763;51.188;6.690;2022-07-10T05:00:14;9.98;;;3.90;;
53857;SDS011;39763;51.188;6.690;2022-07-10T05:01:46;9.35;;;4.15;;
53857;SDS011;39763;51.188;6.690;2022-07-10T05:03:18;11.35;;;4.25;;
53857;SDS011;39763;51.188;6.690;2022-07-10T05:04:50;9.85;;;3.80;;
53857;SDS011;39763;51.188;6.690;2022-07-10T05:06:22;10.25;;;3.80;;
53857;SDS011;39763;51.188;6.690;2022-07-10T05:07:53;11.77;;;4.18;;
53857;SDS011;39763;51.188;6.690;2022-07-10T05:09:25;9.82;;;4.00;;
53857;SDS011;39763;51.188;6.690;2022-07-10T05:10:57;9.68;;;3.67;;
53857;SDS011;39763;51.188;6.690;2022-07-10T05:12:30;8.23;;;3.33;;
53857;SDS011;39763;51.188;6.690;2022-07-10T05:14:02;12.38;;;3.92;;
53857;SDS011;39763;51.188;6.690;2022-07-10T05:15:33;12.07;;;4.03;;
53857;SDS011;39763;51.188;6.690;2022-07-10T05:17:05;9.10;;;3.55;;
53857;SDS011;39763;51.188;6.690;2022-07-10T05:18:37;14.70;;;4.03;;
53857;SDS011;39763;51.188;6.690;2022-07-10T05:20:10;11.50;;;4.00;;
53857;SDS011;39763;51.188;6.690;2022-07-10T05:21:42;9.65;;;4.03;;
53857;SDS011;39763;51.188;6.690;2022-07-10T05:23:13;11.85;;;3.80;;
53857;SDS011;39763;51.188;6.690;2022-07-10T05:24:46;12.38;;;3.90;;
53857;SDS011;39763;51.188;6.690;2022-07-10T05:26:17;11.43;;;3.90;;
53857;SDS011;39763;51.188;6.690;2022-07-10T05:27:50;9.20;;;3.67;;
53857;SDS011;39763;51.188;6.690;2022-07-10T05:29:22;10.38;;;3.92;;
53857;SDS011;39763;51.188;6.690;2022-07-10T05:30:54;9.38;;;3.55;;
53857;SDS011;39763;51.188;6.690;2022-07-10T05:32:26;13.55;;;4.10;;
53857;SDS011;39763;51.188;6.690;2022-07-10T05:33:58;11.98;;;3.90;;
53857;SDS011;39763;51.188;6.690;2022-07-10T05:35:29;9.15;;;3.83;;
53857;SDS011;39763;51.188;6.690;2022-07-10T05:37:02;8.95;;;3.67;;
53857;SDS011;39763;51.188;6.690;2022-07-10T05:38:34;9.85;;;3.53;;
53857;SDS011;39763;51.188;6.690;2022-07-10T05:40:06;10.38;;;3.75;;
53857;SDS011;39763;51.188;6.690;2022-07-10T05:41:39;11.52;;;3.80;;
53857;SDS011;39763;51.188;6.690;2022-07-10T05:43:12;10.10;;;3.58;;
53857;SDS011;39763;51.188;6.690;2022-07-10T05:44:44;13.95;;;3.75;;
53857;SDS011;39763;51.188;6.690;2022-07-10T05:46:16;11.02;;;3.67;;
53857;SDS011;39763;51.188;6.690;2022-07-10T05:47:47;8.15;;;3.38;;
53857;SDS011;39763;51.188;6.690;2022-07-10T05:49:19;8.73;;;3.55;;
53857;SDS011;39763;51.188;6.690;2022-07-10T05:50:51;13.98;;;3.80;;
53857;SDS011;39763;51.188;6.690;2022-07-10T05:52:23;8.82;;;3.92;;
53857;SDS011;39763;51.188;6.690;2022-07-10T05:53:55;11.20;;;3.63;;
53857;SDS011;39763;51.188;6.690;2022-07-10T05:55:26;10.73;;;3.25;;
53857;SDS011;39763;51.188;6.690;2022-07-10T05:56:58;9.85;;;3.10;;
53857;SDS011;39763;51.188;6.690;2022-07-10T05:58:31;11.95;;;3.60;;
53857;SDS011;39763;51.188;6.690;2022-07-10T06:00:04;10.30;;;3.83;;
53857;SDS011;39763;51.188;6.690;2022-07-10T06:01:42;11.32;;;4.25;;
53857;SDS011;39763;51.188;6.690;2022-07-10T06:03:13;10.73;;;3.55;;
53857;SDS011;39763;51.188;6.690;2022-07-10T06:04:45;12.35;;;3.70;;
53857;SDS011;39763;51.188;6.690;2022-07-10T06:06:17;9.82;;;3.30;;
53857;SDS011;39763;51.188;6.690;2022-07-10T06:07:49;9.88;;;3.33;;
53857;SDS011;39763;51.188;6.690;2022-07-10T06:09:21;12.43;;;3.90;;
53857;SDS011;39763;51.188;6.690;2022-07-10T06:10:52;9.02;;;3.33;;
53857;SDS011;39763;51.188;6.690;2022-07-10T06:12:24;11.73;;;3.75;;
53857;SDS011;39763;51.188;6.690;2022-07-10T06:13:58;12.77;;;3.78;;
53857;SDS011;39763;51.188;6.690;2022-07-10T06:15:29;9.27;;;3.38;;
53857;SDS011;39763;51.188;6.690;2022-07-10T06:17:01;10.15;;;3.53;;
53857;SDS011;39763;51.188;6.690;2022-07-10T06:18:33;15.25;;;3.70;;
53857;SDS011;39763;51.188;6.690;2022-07-10T06:20:05;9.45;;;3.35;;
53857;SDS011;39763;51.188;6.690;2022-07-10T06:21:38;11.68;;;3.30;;
53857;SDS011;39763;51.188;6.690;2022-07-10T06:23:09;8.75;;;3.10;;
53857;SDS011;39763;51.188;6.690;2022-07-10T06:24:41;12.10;;;3.40;;
53857;SDS011;39763;51.188;6.690;2022-07-10T06:26:13;11.60;;;3.42;;
53857;SDS011;39763;51.188;6.690;2022-07-10T06:27:45;10.77;;;2.85;;
53857;SDS011;39763;51.188;6.690;2022-07-10T06:29:18;10.38;;;3.60;;
53857;SDS011;39763;51.188;6.690;2022-07-10T06:30:50;13.68;;;3.75;;
53857;SDS011;39763;51.188;6.690;2022-07-10T06:32:28;11.90;;;3.50;;
53857;SDS011;39763;51.188;6.690;2022-07-10T06:34:00;11.93;;;3.17;;
53857;SDS011;39763;51.188;6.690;2022-07-10T06:35:32;9.93;;;3.50;;
53857;SDS011;39763;51.188;6.690;2022-07-10T06:37:04;11.23;;;3.50;;
53857;SDS011;39763;51.188;6.690;2022-07-10T06:38:36;9.40;;;3.72;;
53857;SDS011;39763;51.188;6.690;2022-07-10T06:40:09;11.43;;;3.47;;
53857;SDS011;39763;51.188;6.690;2022-07-10T06:41:44;10.63;;;3.10;;
53857;SDS011;39763;51.188;6.690;2022-07-10T06:43:15;12.40;;;3.60;;
53857;SDS011;39763;51.188;6.690;2022-07-10T06:44:49;10.23;;;3.15;;
53857;SDS011;39763;51.188;6.690;2022-07-10T06:46:20;11.18;;;3.13;;
53857;SDS011;39763;51.188;6.690;2022-07-10T06:47:52;12.15;;;3.65;;
53857;SDS011;39763;51.188;6.690;2022-07-10T06:49:28;11.82;;;3.78;;
53857;SDS011;39763;51.188;6.690;2022-07-10T06:51:00;12.52;;;3.70;;
53857;SDS011;39763;51.188;6.690;2022-07-10T06:52:32;8.02;;;3.03;;
53857;SDS011;39763;51.188;6.690;2022-07-10T06:54:04;11.40;;;3.53;;
53857;SDS011;39763;51.188;6.690;2022-07-10T06:55:36;9.02;;;3.10;;
53857;SDS011;39763;51.188;6.690;2022-07-10T06:57:09;8.80;;;3.70;;
53857;SDS011;39763;51.188;6.690;2022-07-10T06:58:41;11.77;;;3.60;;
53857;SDS011;39763;51.188;6.690;2022-07-10T07:00:14;11.68;;;3.17;;
53857;SDS011;39763;51.188;6.690;2022-07-10T07:01:47;10.75;;;3.47;;
53857;SDS011;39763;51.188;6.690;2022-07-10T07:03:19;10.73;;;3.58;;
53857;SDS011;39763;51.188;6.690;2022-07-10T07:04:50;10.20;;;3.50;;
53857;SDS011;39763;51.188;6.690;2022-07-10T07:06:22;9.23;;;2.70;;
53857;SDS011;39763;51.188;6.690;2022-07-10T07:07:54;7.70;;;2.95;;
53857;SDS011;39763;51.188;6.690;2022-07-10T07:09:26;9.50;;;2.83;;
53857;SDS011;39763;51.188;6.690;2022-07-10T07:10:57;9.20;;;2.80;;
53857;SDS011;39763;51.188;6.690;2022-07-10T07:12:29;10.63;;;3.60;;
53857;SDS011;39763;51.188;6.690;2022-07-10T07:14:01;10.27;;;2.97;;
53857;SDS011;39763;51.188;6.690;2022-07-10T07:15:34;9.52;;;2.72;;
53857;SDS011;39763;51.188;6.690;2022-07-10T07:17:10;11.18;;;2.97;;
53857;SDS011;39763;51.188;6.690;2022-07-10T07:18:45;8.77;;;2.88;;
53857;SDS011;39763;51.188;6.690;2022-07-10T07:20:24;7.47;;;2.58;;
53857;SDS011;39763;51.188;6.690;2022-07-10T07:22:14;10.00;;;2.63;;
53857;SDS011;39763;51.188;6.690;2022-07-10T07:24:05;10.63;;;3.13;;
53857;SDS011;39763;51.188;6.690;2022-07-10T07:25:37;9.30;;;2.95;;
53857;SDS011;39763;51.188;6.690;2022-07-10T07:27:11;11.95;;;3.08;;
53857;SDS011;39763;51.188;6.690;2022-07-10T07:28:43;11.45;;;3.00;;
53857;SDS011;39763;51.188;6.690;2022-07-10T07:30:15;10.43;;;3.08;;
53857;SDS011;39763;51.188;6.690;2022-07-10T07:31:48;7.93;;;2.88;;
53857;SDS011;39763;51.188;6.690;2022-07-10T07:33:20;9.07;;;2.78;;
53857;SDS011;39763;51.188;6.690;2022-07-10T07:34:52;6.85;;;2.65;;
53857;SDS011;39763;51.188;6.690;2022-07-10T07:36:24;10.77;;;3.15;;
53857;SDS011;39763;51.188;6.690;2022-07-10T07:37:55;8.90;;;3.00;;
53857;SDS011;39763;51.188;6.690;2022-07-10T07:39:27;14.13;;;3.15;;
53857;SDS011;39763;51.188;6.690;2022-07-10T07:40:59;9.25;;;2.70;;
53857;SDS011;39763;51.188;6.690;2022-07-10T07:42:32;11.77;;;3.35;;
53857;SDS011;39763;51.188;6.690;2022-07-10T07:44:04;7.53;;;2.92;;
53857;SDS011;39763;51.188;6.690;2022-07-10T07:45:35;11.63;;;3.00;;
53857;SDS011;39763;51.188;6.690;2022-07-10T07:47:09;10.27;;;2.63;;
53857;SDS011;39763;51.188;6.690;2022-07-10T07:48:42;10.27;;;3.33;;
53857;SDS011;39763;51.188;6.690;2022-07-10T07:50:15;9.65;;;2.72;;
53857;SDS011;39763;51.188;6.690;2022-07-10T07:51:48;10.98;;;3.38;;
53857;SDS011;39763;51.188;6.690;2022-07-10T07:53:20;12.43;;;2.92;;
53857;SDS011;39763;51.188;6.690;2022-07-10T07:54:51;8.98;;;2.53;;
53857;SDS011;39763;51.188;6.690;2022-07-10T07:56:23;13.32;;;3.10;;
53857;SDS011;39763;51.188;6.690;2022-07-10T07:57:55;11.20;;;3.10;;
53857;SDS011;39763;51.188;6.690;2022-07-10T07:59:28;8.32;;;3.10;;
53857;SDS011;39763;51.188;6.690;2022-07-10T08:00:59;9.25;;;2.55;;
53857;SDS011;39763;51.188;6.690;2022-07-10T08:02:32;11.13;;;2.85;;
53857;SDS011;39763;51.188;6.690;2022-07-10T08:04:04;9.05;;;2.72;;
53857;SDS011;39763;51.188;6.690;2022-07-10T08:05:40;10.38;;;2.97;;
53857;SDS011;39763;51.188;6.690;2022-07-10T08:07:11;9.05;;;2.90;;
53857;SDS011;39763;51.188;6.690;2022-07-10T08:08:43;11.20;;;3.05;;
53857;SDS011;39763;51.188;6.690;2022-07-10T08:10:16;10.20;;;2.72;;
53857;SDS011;39763;51.188;6.690;2022-07-10T08:11:49;9.27;;;2.40;;
53857;SDS011;39763;51.188;6.690;2022-07-10T08:13:21;14.35;;;2.80;;
53857;SDS011;39763;51.188;6.690;2022-07-10T08:14:53;7.97;;;2.67;;
53857;SDS011;39763;51.188;6.690;2022-07-10T08:16:25;8.73;;;2.60;;
53857;SDS011;39763;51.188;6.690;2022-07-10T08:17:58;10.38;;;3.25;;
53857;SDS011;39763;51.188;6.690;2022-07-10T08:19:32;13.93;;;2.97;;
53857;SDS011;39763;51.188;6.690;2022-07-10T08:21:03;11.25;;;3.20;;
53857;SDS011;39763;51.188;6.690;2022-07-10T08:22:36;9.98;;;3.20;;
53857;SDS011;39763;51.188;6.690;2022-07-10T08:24:07;11.65;;;3.47;;
53857;SDS011;39763;51.188;6.690;2022-07-10T08:25:39;12.50;;;3.50;;
53857;SDS011;39763;51.188;6.690;2022-07-10T08:27:11;14.70;;;3.50;;
53857;SDS011;39763;51.188;6.690;2022-07-10T08:28:43;10.52;;;3.47;;
53857;SDS011;39763;51.188;6.690;2022-07-10T08:30:15;11.55;;;3.17;;
53857;SDS011;39763;51.188;6.690;2022-07-10T08:31:47;9.85;;;2.75;;
53857;SDS011;39763;51.188;6.690;2022-07-10T08:33:20;10.25;;;3.10;;
53857;SDS011;39763;51.188;6.690;2022-07-10T08:34:52;9.95;;;2.80;;
53857;SDS011;39763;51.188;6.690;2022-07-10T08:36:24;12.98;;;3.20;;
53857;SDS011;39763;51.188;6.690;2022-07-10T08:38:16;10.60;;;3.50;;
53857;SDS011;39763;51.188;6.690;2022-07-10T08:39:47;15.02;;;3.38;;
53857;SDS011;39763;51.188;6.690;2022-07-10T08:41:20;10.80;;;3.10;;
53857;SDS011;39763;51.188;6.690;2022-07-10T08:42:55;8.93;;;2.47;;
53857;SDS011;39763;51.188;6.690;2022-07-10T08:44:27;10.25;;;2.80;;
53857;SDS011;39763;51.188;6.690;2022-07-10T08:46:00;8.73;;;2.80;;
53857;SDS011;39763;51.188;6.690;2022-07-10T08:47:33;9.82;;;2.95;;
53857;SDS011;39763;51.188;6.690;2022-07-10T08:49:10;12.02;;;3.60;;
53857;SDS011;39763;51.188;6.690;2022-07-10T08:50:44;9.55;;;3.50;;
53857;SDS011;39763;51.188;6.690;2022-07-10T08:52:23;9.90;;;3.20;;
53857;SDS011;39763;51.188;6.690;2022-07-10T08:53:57;14.50;;;3.88;;
53857;SDS011;39763;51.188;6.690;2022-07-10T08:55:32;12.05;;;3.42;;
53857;SDS011;39763;51.188;6.690;2022-07-10T08:57:04;8.85;;;2.92;;
53857;SDS011;39763;51.188;6.690;2022-07-10T08:58:36;11.23;;;3.33;;
53857;SDS011;39763;51.188;6.690;2022-07-10T09:00:10;12.00;;;3.15;;
53857;SDS011;39763;51.188;6.690;2022-07-10T09:01:42;11.68;;;3.33;;
53857;SDS011;39763;51.188;6.690;2022-07-10T09:03:14;10.55;;;3.63;;
53857;SDS011;39763;51.188;6.690;2022-07-10T09:04:48;7.90;;;3.00;;
53857;SDS011;39763;51.188;6.690;2022-07-10T09:06:19;10.90;;;3.10;;
53857;SDS011;39763;51.188;6.690;2022-07-10T09:07:51;11.55;;;3.28;;
53857;SDS011;39763;51.188;6.690;2022-07-10T09:09:25;11.45;;;3.58;;
53857;SDS011;39763;51.188;6.690;2022-07-10T09:12:50;11.93;;;3.40;;
53857;SDS011;39763;51.188;6.690;2022-07-10T09:14:25;10.45;;;3.15;;
53857;SDS011;39763;51.188;6.690;2022-07-10T09:16:05;11.95;;;3.47;;